Time;durP1;ratioP1;P1;durP2;ratioP2;P2;SDS_P1;SDS_P2;PMS_P1;PMS_P2;Temp;Humidity;BMP_temperature;BMP_pressure;BME280_temperature;BME280_humidity;BME280_pressure;Samples;Min_cycle;Max_cycle;Signal;HPM_P1;HPM_P2
2022/07/16 00:02:19;;;;;;;2.80;0.70;;;;;;;15.61;66.83;101139.53;5008667;28;20145;-77
2022/07/16 00:04:47;;;;;;;4.97;1.30;;;;;;;15.60;66.78;101134.34;5007044;28;20048;-78
2022/07/16 00:07:14;;;;;;;1.77;0.75;;;;;;;15.57;67.18;101137.22;5025167;28;20046;-77
2022/07/16 00:09:41;;;;;;;1.88;0.70;;;;;;;15.52;67.53;101134.03;5025041;28;20555;-78
2022/07/16 00:12:08;;;;;;;3.05;1.05;;;;;;;15.49;67.85;101134.25;5024415;28;20056;-77
2022/07/16 00:14:36;;;;;;;4.10;0.88;;;;;;;15.51;67.80;101122.59;5025415;28;20052;-78
2022/07/16 00:17:03;;;;;;;1.85;0.68;;;;;;;15.51;67.86;101122.59;5028644;28;20080;-77
2022/07/16 00:19:30;;;;;;;1.40;0.70;;;;;;;15.53;67.81;101125.13;5035052;28;20655;-76
2022/07/16 00:21:58;;;;;;;2.20;0.73;;;;;;;15.53;67.81;101115.34;5039232;28;20447;-77
2022/07/16 00:24:25;;;;;;;8.68;0.80;;;;;;;15.49;68.04;101113.91;5033346;28;20056;-77
2022/07/16 00:26:53;;;;;;;4.60;1.13;;;;;;;15.49;68.36;101110.38;5035809;28;20117;-75
2022/07/16 00:29:20;;;;;;;1.88;0.60;;;;;;;15.49;68.24;101118.31;5036255;28;20049;-76
2022/07/16 00:31:49;;;;;;;1.60;0.70;;;;;;;15.47;68.75;101107.84;5027004;28;20037;-76
2022/07/16 00:34:17;;;;;;;4.45;0.80;;;;;;;15.44;68.62;101102.75;5032640;28;20152;-77
2022/07/16 00:36:45;;;;;;;6.93;0.88;;;;;;;15.43;68.78;101101.03;5032046;28;20042;-77
2022/07/16 00:39:12;;;;;;;4.38;0.57;;;;;;;15.44;68.84;101108.03;5031131;28;20056;-78
2022/07/16 00:41:42;;;;;;;4.45;1.10;;;;;;;15.44;68.65;101100.97;5016071;28;20045;-77
2022/07/16 00:44:11;;;;;;;3.17;0.70;;;;;;;15.42;69.05;101108.16;5030919;28;20057;-75
2022/07/16 00:46:39;;;;;;;4.75;1.10;;;;;;;15.39;69.33;101103.06;5034596;28;20081;-78
2022/07/16 00:49:08;;;;;;;2.85;0.73;;;;;;;15.40;69.38;101098.59;5016475;28;20048;-77
2022/07/16 00:51:36;;;;;;;4.63;0.90;;;;;;;15.35;69.66;101096.28;5027899;28;20053;-77
2022/07/16 00:54:04;;;;;;;7.25;0.93;;;;;;;15.37;69.57;101093.53;5002520;28;20053;-76
2022/07/16 00:56:31;;;;;;;1.77;0.90;;;;;;;15.38;69.54;101089.91;5029174;28;20061;-77
2022/07/16 00:58:58;;;;;;;3.58;0.88;;;;;;;15.31;69.77;101084.22;5013021;28;20049;-77
2022/07/16 01:01:26;;;;;;;7.20;0.77;;;;;;;15.30;70.17;101082.50;5008729;28;20041;-77
2022/07/16 01:03:53;;;;;;;3.65;1.23;;;;;;;15.32;69.95;101085.06;5033420;28;20558;-77
2022/07/16 01:06:22;;;;;;;2.35;0.80;;;;;;;15.32;70.13;101077.09;5004578;28;20058;-77
2022/07/16 01:08:50;;;;;;;2.40;0.70;;;;;;;15.32;70.13;101080.59;5017610;28;20588;-77
2022/07/16 01:11:19;;;;;;;2.83;0.88;;;;;;;15.26;70.49;101081.03;5032231;28;20227;-77
2022/07/16 01:13:49;;;;;;;3.47;0.63;;;;;;;15.28;70.47;101078.28;5044185;28;20073;-78
2022/07/16 01:16:17;;;;;;;2.20;0.60;;;;;;;15.26;70.45;101073.06;5030999;28;20482;-77
2022/07/16 01:18:46;;;;;;;2.40;0.70;;;;;;;15.29;70.33;101074.66;5019477;28;20076;-77
2022/07/16 01:21:14;;;;;;;4.70;0.70;;;;;;;15.27;70.60;101072.13;5016728;28;20068;-77
2022/07/16 01:23:42;;;;;;;1.30;0.70;;;;;;;15.26;70.64;101073.06;4997198;28;20507;-77
2022/07/16 01:26:12;;;;;;;1.67;0.70;;;;;;;15.20;70.64;101061.09;5021134;28;20061;-77
2022/07/16 01:28:39;;;;;;;2.97;1.00;;;;;;;15.18;70.66;101065.69;5015581;28;20067;-77
2022/07/16 01:31:07;;;;;;;4.28;0.70;;;;;;;15.12;71.31;101066.09;5029940;28;20456;-77
2022/07/16 01:33:36;;;;;;;0.75;0.60;;;;;;;15.14;71.07;101056.25;5035308;28;20056;-77
2022/07/16 01:36:12;;;;;;;4.65;0.65;;;;;;;15.12;71.38;101052.84;5009820;28;20419;-77
2022/07/16 01:38:44;;;;;;;4.47;0.93;;;;;;;15.12;70.99;101058.13;5008600;28;20623;-77
2022/07/16 01:41:12;;;;;;;2.40;0.70;;;;;;;15.13;71.39;101065.16;5013381;28;20049;-76
2022/07/16 01:43:39;;;;;;;8.40;1.10;;;;;;;15.03;72.15;101058.78;4995287;28;20057;-77
2022/07/16 01:46:06;;;;;;;2.30;0.75;;;;;;;15.01;72.10;101051.91;5009578;28;20060;-77
2022/07/16 01:48:34;;;;;;;3.38;0.85;;;;;;;15.02;72.02;101046.50;5023483;28;20068;-77
2022/07/16 01:51:01;;;;;;;3.05;0.88;;;;;;;15.01;72.18;101047.47;4989561;28;20419;-76
2022/07/16 01:53:29;;;;;;;1.63;0.65;;;;;;;14.98;72.35;101036.22;5008271;28;20064;-76
2022/07/16 01:55:58;;;;;;;4.00;0.80;;;;;;;14.96;72.30;101030.19;4989402;28;20397;-77
2022/07/16 01:58:25;;;;;;;4.15;0.90;;;;;;;14.95;72.56;101034.66;5008721;28;20487;-76
2022/07/16 02:00:53;;;;;;;1.27;0.50;;;;;;;14.94;72.63;101033.78;5003633;28;20046;-77
2022/07/16 02:03:20;;;;;;;2.85;1.10;;;;;;;14.95;72.47;101026.69;5026763;28;20350;-76
2022/07/16 02:05:48;;;;;;;1.45;0.77;;;;;;;14.96;72.00;101020.44;5026433;28;20616;-77
2022/07/16 02:08:15;;;;;;;1.73;0.70;;;;;;;14.93;72.33;101016.19;5007706;28;20046;-77
2022/07/16 02:10:42;;;;;;;1.92;0.70;;;;;;;14.91;72.70;101011.97;4989559;28;20062;-77
2022/07/16 02:13:09;;;;;;;1.48;0.50;;;;;;;14.93;72.35;101007.38;5007818;28;20053;-78
2022/07/16 02:15:37;;;;;;;1.65;0.70;;;;;;;14.92;72.47;101008.34;5009491;28;20100;-76
2022/07/16 02:18:04;;;;;;;5.30;0.80;;;;;;;14.92;72.14;101008.34;5009508;28;20082;-76
2022/07/16 02:20:31;;;;;;;2.72;0.73;;;;;;;14.93;71.86;100997.63;5025756;28;20504;-77
2022/07/16 02:22:59;;;;;;;1.92;0.57;;;;;;;14.92;71.73;100997.75;4993824;28;20419;-78
2022/07/16 02:25:26;;;;;;;2.58;1.05;;;;;;;14.93;71.56;101002.06;5009029;28;20138;-77
2022/07/16 02:28:08;;;;;;;1.33;0.68;;;;;;;14.93;71.35;100999.44;5014369;28;20057;-75
2022/07/16 02:30:42;;;;;;;1.48;0.60;;;;;;;14.91;71.25;100985.44;5011743;28;20054;-77
2022/07/16 02:33:12;;;;;;;2.50;0.70;;;;;;;14.93;70.69;100996.78;5014467;28;20034;-76
2022/07/16 02:35:39;;;;;;;3.13;0.80;;;;;;;14.89;70.87;100988.19;5025672;28;20124;-76
2022/07/16 02:38:07;;;;;;;2.03;0.70;;;;;;;14.90;70.50;100991.69;5010853;28;20049;-75
2022/07/16 02:40:36;;;;;;;2.63;0.80;;;;;;;14.88;70.53;100985.66;4995614;28;20159;-76
2022/07/16 02:43:05;;;;;;;2.15;0.80;;;;;;;14.85;70.57;100983.22;5032078;28;20053;-76
2022/07/16 02:45:33;;;;;;;3.17;0.65;;;;;;;14.84;70.98;100979.72;5007571;28;20053;-77
2022/07/16 02:48:01;;;;;;;3.53;0.85;;;;;;;14.87;70.73;100978.66;5014681;28;20132;-77
2022/07/16 02:50:28;;;;;;;1.13;0.65;;;;;;;14.85;70.66;100978.75;4989370;28;20060;-77
2022/07/16 02:52:56;;;;;;;2.88;0.95;;;;;;;14.85;70.33;100976.09;5030390;28;20046;-76
2022/07/16 02:55:24;;;;;;;2.55;0.80;;;;;;;14.87;70.28;100971.56;5028101;28;20058;-76
2022/07/16 02:57:51;;;;;;;1.42;0.60;;;;;;;14.87;70.69;100974.22;5030129;28;20085;-76
2022/07/16 03:00:19;;;;;;;7.65;0.80;;;;;;;14.85;70.89;100967.31;5028822;28;20503;-76
2022/07/16 03:02:46;;;;;;;1.63;0.82;;;;;;;14.85;71.12;100962.00;5021910;28;20050;-76
2022/07/16 03:05:14;;;;;;;2.45;0.75;;;;;;;14.86;70.80;100963.69;4993546;28;20056;-76
2022/07/16 03:07:42;;;;;;;1.52;0.88;;;;;;;14.88;71.05;100959.16;4993714;28;20053;-76
2022/07/16 03:10:10;;;;;;;3.92;0.80;;;;;;;14.89;70.68;100951.06;4992042;28;20157;-76
2022/07/16 03:12:38;;;;;;;3.28;1.00;;;;;;;14.91;70.89;100954.47;5026133;28;20042;-76
2022/07/16 03:15:06;;;;;;;3.15;1.00;;;;;;;14.90;70.75;100951.91;4987114;28;20246;-76
2022/07/16 03:17:33;;;;;;;5.80;0.90;;;;;;;14.90;70.20;100943.97;5013203;28;20500;-76
2022/07/16 03:20:01;;;;;;;8.10;1.15;;;;;;;14.89;70.41;100951.06;5038244;28;20052;-75
2022/07/16 03:22:29;;;;;;;4.25;0.75;;;;;;;14.90;70.31;100943.97;5016775;28;20388;-76
2022/07/16 03:24:56;;;;;;;2.95;1.00;;;;;;;14.92;70.33;100934.13;5034914;28;20280;-76
2022/07/16 03:27:23;;;;;;;3.80;0.98;;;;;;;14.94;70.29;100942.78;5029473;28;20046;-76
2022/07/16 03:29:50;;;;;;;2.85;1.05;;;;;;;14.95;70.05;100955.13;5027268;28;20048;-76
2022/07/16 03:32:18;;;;;;;4.50;0.98;;;;;;;14.93;70.30;100939.31;5034019;28;20099;-76
2022/07/16 03:34:45;;;;;;;1.88;0.80;;;;;;;14.93;70.13;100952.56;5031570;28;20533;-77
2022/07/16 03:37:12;;;;;;;5.38;0.80;;;;;;;14.91;69.87;100951.84;5020364;28;20034;-77
2022/07/16 03:39:39;;;;;;;4.90;0.98;;;;;;;14.94;69.69;100967.50;5017931;28;20049;-77
2022/07/16 03:42:06;;;;;;;1.52;0.65;;;;;;;14.93;70.23;100967.63;5013775;28;20046;-77
2022/07/16 03:44:34;;;;;;;4.05;0.95;;;;;;;14.94;69.98;100958.69;5038114;28;20091;-77
2022/07/16 03:47:01;;;;;;;2.20;0.77;;;;;;;14.91;71.50;100954.47;5015148;28;20404;-76
2022/07/16 03:49:29;;;;;;;3.00;1.00;;;;;;;14.86;71.76;100955.75;5013782;28;20068;-76
2022/07/16 03:51:56;;;;;;;4.60;1.27;;;;;;;14.86;72.04;100955.75;5016606;28;20045;-76
2022/07/16 03:54:23;;;;;;;4.35;1.00;;;;;;;14.84;72.57;100947.91;5019328;28;20045;-77
2022/07/16 03:56:50;;;;;;;3.63;0.63;;;;;;;14.81;73.18;100944.63;5014275;28;20051;-76
2022/07/16 03:59:17;;;;;;;3.08;0.80;;;;;;;14.78;73.32;100948.38;5003204;28;20045;-77
2022/07/16 04:01:45;;;;;;;2.65;0.93;;;;;;;14.82;72.98;100939.25;5034388;28;20077;-76
2022/07/16 04:04:12;;;;;;;3.65;1.38;;;;;;;14.76;73.52;100941.47;5034261;28;20037;-77
2022/07/16 04:06:39;;;;;;;5.50;1.17;;;;;;;14.79;73.91;100943.91;5026933;28;20080;-77
2022/07/16 04:09:06;;;;;;;5.50;0.93;;;;;;;14.78;73.47;100939.56;5034689;28;20045;-77
2022/07/16 04:11:34;;;;;;;1.17;0.70;;;;;;;14.73;73.90;100925.81;5024892;28;20057;-76
2022/07/16 04:14:01;;;;;;;1.50;0.60;;;;;;;14.73;73.42;100921.34;5038422;28;20155;-76
2022/07/16 04:16:28;;;;;;;1.20;0.70;;;;;;;14.79;73.49;100912.94;5014987;28;20049;-76
2022/07/16 04:18:55;;;;;;;7.20;0.85;;;;;;;14.76;73.91;100909.66;5018300;28;20052;-77
2022/07/16 04:21:23;;;;;;;7.13;1.27;;;;;;;14.79;73.94;100906.81;5016052;28;20068;-76
2022/07/16 04:23:50;;;;;;;2.45;0.82;;;;;;;14.86;73.13;100903.59;5004212;28;20053;-77
2022/07/16 04:26:17;;;;;;;2.75;1.10;;;;;;;14.90;72.60;100893.59;5025812;28;20057;-77
2022/07/16 04:28:45;;;;;;;3.65;1.08;;;;;;;14.90;72.72;100899.78;5029093;28;20053;-77
2022/07/16 04:31:12;;;;;;;2.70;0.70;;;;;;;14.92;73.01;100895.19;5019795;28;20060;-77
2022/07/16 04:33:40;;;;;;;2.42;0.77;;;;;;;14.92;72.53;100878.44;5022436;28;20164;-77
2022/07/16 04:36:08;;;;;;;3.55;1.30;;;;;;;14.94;71.98;100881.81;5020570;28;20041;-77
2022/07/16 04:38:35;;;;;;;2.67;0.75;;;;;;;14.96;71.75;100874.63;5013530;28;20050;-77
2022/07/16 04:41:02;;;;;;;3.63;1.17;;;;;;;14.98;71.83;100869.19;5031198;28;20067;-77
2022/07/16 04:43:29;;;;;;;4.47;1.20;;;;;;;14.97;71.75;100870.16;5026051;28;20136;-77
2022/07/16 04:45:57;;;;;;;3.78;1.00;;;;;;;14.95;71.60;100875.59;5000854;28;20045;-78
2022/07/16 04:48:24;;;;;;;1.73;0.80;;;;;;;14.96;71.83;100865.81;5028088;28;20085;-76
2022/07/16 04:50:51;;;;;;;5.63;1.30;;;;;;;14.94;71.76;100863.25;5009906;28;20048;-77
2022/07/16 04:53:19;;;;;;;2.97;0.70;;;;;;;14.82;71.73;100872.13;5024324;28;20045;-77
2022/07/16 04:55:46;;;;;;;3.22;0.80;;;;;;;14.79;71.52;100870.53;5010313;28;20056;-76
2022/07/16 04:58:14;;;;;;;3.30;0.90;;;;;;;14.82;71.82;100869.47;5013521;28;20057;-77
2022/07/16 05:00:41;;;;;;;2.20;0.90;;;;;;;14.80;70.71;100866.94;5025576;28;20538;-77
2022/07/16 05:03:09;;;;;;;5.03;0.98;;;;;;;14.80;71.09;100866.94;5020308;28;20034;-78
2022/07/16 05:05:37;;;;;;;2.13;0.70;;;;;;;14.84;71.00;100859.59;4998259;28;20081;-77
2022/07/16 05:08:07;;;;;;;2.03;0.95;;;;;;;14.86;70.59;100861.19;4992152;28;20061;-77
2022/07/16 05:10:34;;;;;;;3.53;0.73;;;;;;;14.88;69.81;100866.38;5006415;28;20058;-75
2022/07/16 05:13:02;;;;;;;1.33;0.70;;;;;;;14.88;70.09;100866.38;5008564;28;20215;-76
2022/07/16 05:15:30;;;;;;;6.68;0.90;;;;;;;14.88;69.90;100864.56;5024726;28;20085;-77
2022/07/16 05:17:57;;;;;;;2.38;0.73;;;;;;;14.97;69.00;100872.81;5010998;28;20144;-78
2022/07/16 05:20:25;;;;;;;3.28;0.70;;;;;;;15.01;69.90;100863.69;5033324;28;20400;-77
2022/07/16 05:22:52;;;;;;;2.45;0.95;;;;;;;15.08;68.82;100863.09;5047877;28;20057;-77
2022/07/16 05:25:20;;;;;;;1.95;0.75;;;;;;;15.14;68.49;100856.50;5031753;28;20041;-77
2022/07/16 05:27:47;;;;;;;2.97;0.52;;;;;;;15.14;68.00;100854.69;5026138;28;20491;-77
2022/07/16 05:30:15;;;;;;;4.88;0.90;;;;;;;15.25;67.55;100855.69;5005606;28;20058;-77
2022/07/16 05:32:43;;;;;;;2.90;0.93;;;;;;;15.29;67.32;100852.69;5007848;28;20061;-77
2022/07/16 05:35:15;;;;;;;2.45;1.10;;;;;;;15.36;67.27;100840.69;5028326;28;20066;-77
2022/07/16 05:37:43;;;;;;;4.88;1.30;;;;;;;15.49;66.98;100837.06;5007876;28;20054;-77
2022/07/16 05:40:11;;;;;;;4.80;0.70;;;;;;;15.59;66.15;100848.69;4973137;28;20378;-77
2022/07/16 05:42:38;;;;;;;3.60;0.98;;;;;;;15.65;66.17;100856.22;4991180;28;20116;-77
2022/07/16 05:45:13;;;;;;;1.85;0.70;;;;;;;15.58;66.18;100852.28;5025398;28;20055;-77
2022/07/16 05:47:41;;;;;;;4.97;1.13;;;;;;;15.67;66.02;100857.81;5026904;28;20516;-76
2022/07/16 05:50:09;;;;;;;2.70;1.05;;;;;;;15.70;65.81;100848.75;5008540;28;20098;-77
2022/07/16 05:52:36;;;;;;;2.58;1.10;;;;;;;15.76;66.07;100855.38;5028695;28;20057;-76
2022/07/16 05:55:04;;;;;;;2.75;1.00;;;;;;;15.79;65.93;100865.78;4993368;28;20056;-76
2022/07/16 05:57:31;;;;;;;6.97;1.30;;;;;;;15.83;65.76;100848.66;5012272;28;20642;-76
2022/07/16 05:59:59;;;;;;;3.42;1.13;;;;;;;15.79;66.25;100855.16;5025520;28;20461;-76
2022/07/16 06:02:26;;;;;;;3.85;1.35;;;;;;;15.81;66.06;100858.56;4994851;28;20553;-77
2022/07/16 06:04:53;;;;;;;4.50;1.20;;;;;;;15.88;66.33;100857.94;5008631;28;20133;-76
2022/07/16 06:07:20;;;;;;;5.85;1.77;;;;;;;15.93;67.25;100862.88;4994179;28;20077;-76
2022/07/16 06:09:48;;;;;;;3.60;1.20;;;;;;;15.88;68.43;100854.44;5009974;28;20148;-76
2022/07/16 06:12:15;;;;;;;3.67;1.60;;;;;;;15.79;69.93;100865.78;5021149;28;20052;-76
2022/07/16 06:14:42;;;;;;;2.78;1.30;;;;;;;15.79;71.02;100861.31;5038323;28;20499;-77
2022/07/16 06:17:09;;;;;;;3.60;1.58;;;;;;;15.64;73.34;100875.75;5013197;28;20068;-76
2022/07/16 06:19:40;;;;;;;9.10;1.38;;;;;;;15.52;75.49;100897.88;5012920;28;20520;-76
2022/07/16 06:22:08;;;;;;;4.03;1.50;;;;;;;15.40;78.34;100891.66;5009645;28;20076;-76
2022/07/16 06:24:35;;;;;;;4.05;1.70;;;;;;;15.22;80.59;100898.34;5012948;28;20053;-76
2022/07/16 06:27:03;;;;;;;5.47;1.88;;;;;;;14.99;82.76;100886.78;5011264;28;20503;-76
2022/07/16 06:29:30;;;;;;;8.77;1.73;;;;;;;14.81;83.98;100889.81;5011283;28;20358;-76
2022/07/16 06:31:57;;;;;;;5.18;1.80;;;;;;;14.89;84.90;100884.81;5010574;28;20037;-77
2022/07/16 06:34:24;;;;;;;2.50;1.45;;;;;;;14.75;86.97;100886.78;5010821;28;20050;-76
2022/07/16 06:36:52;;;;;;;3.47;1.92;;;;;;;14.71;88.23;100890.59;5008493;28;20125;-76
2022/07/16 06:39:19;;;;;;;6.22;1.92;;;;;;;14.67;90.15;100888.16;5010296;28;20046;-76
2022/07/16 06:41:46;;;;;;;8.48;1.77;;;;;;;14.67;91.39;100889.97;5027310;28;20050;-76
2022/07/16 06:44:13;;;;;;;6.82;2.20;;;;;;;14.63;92.18;100888.50;5029177;28;20496;-76
2022/07/16 06:46:40;;;;;;;4.95;1.90;;;;;;;14.46;94.22;100900.28;5010943;28;20049;-75
2022/07/16 06:49:08;;;;;;;7.38;1.80;;;;;;;14.37;95.43;100900.94;5010630;28;20053;-76
2022/07/16 06:51:35;;;;;;;6.07;1.58;;;;;;;14.36;95.92;100904.50;5009746;28;20557;-76
2022/07/16 06:54:02;;;;;;;8.60;2.38;;;;;;;14.34;96.49;100906.44;5010000;28;20057;-76
2022/07/16 06:56:29;;;;;;;5.72;2.35;;;;;;;14.32;97.59;100908.31;4997011;28;20700;-76
2022/07/16 06:58:56;;;;;;;6.40;2.20;;;;;;;14.43;96.78;100906.63;5014366;28;20404;-76
2022/07/16 07:01:24;;;;;;;4.60;2.10;;;;;;;14.40;97.99;100903.34;5007757;28;20046;-75
2022/07/16 07:03:51;;;;;;;7.22;2.10;;;;;;;14.54;97.74;100905.88;5012282;28;20049;-75
2022/07/16 07:06:18;;;;;;;7.45;2.10;;;;;;;14.71;96.24;100891.44;4997273;28;20457;-75
2022/07/16 07:08:46;;;;;;;4.28;2.15;;;;;;;14.95;96.11;100896.78;5009680;28;20058;-76
2022/07/16 07:11:19;;;;;;;4.55;2.15;;;;;;;15.05;94.93;100895.16;5012632;28;20057;-76
2022/07/16 07:13:48;;;;;;;5.38;1.98;;;;;;;15.12;95.34;100899.03;5029908;28;20041;-76
2022/07/16 07:16:16;;;;;;;3.80;2.00;;;;;;;15.25;94.92;100900.78;5029031;28;20060;-75
2022/07/16 07:18:43;;;;;;;3.97;1.92;;;;;;;15.32;94.27;100897.56;5013091;28;20056;-76
2022/07/16 07:21:11;;;;;;;4.00;2.45;;;;;;;15.40;93.73;100907.59;4991453;28;20052;-76
2022/07/16 07:23:38;;;;;;;6.45;2.45;;;;;;;15.37;93.31;100906.03;5010001;28;20096;-77
2022/07/16 07:26:05;;;;;;;5.22;2.10;;;;;;;15.37;93.59;100911.34;4991086;28;20660;-77
2022/07/16 07:28:33;;;;;;;4.40;2.35;;;;;;;15.57;93.22;100919.59;5009598;28;20137;-76
2022/07/16 07:31:00;;;;;;;7.65;2.92;;;;;;;15.71;91.98;100916.78;5007520;28;20145;-76
2022/07/16 07:33:27;;;;;;;4.85;1.88;;;;;;;15.88;90.97;100910.19;5010711;28;20046;-76
2022/07/16 07:35:54;;;;;;;7.72;2.92;;;;;;;15.77;90.29;100916.34;5009587;28;20072;-76
2022/07/16 07:38:21;;;;;;;4.30;2.20;;;;;;;16.01;90.67;100931.34;5021978;28;20060;-77
2022/07/16 07:40:49;;;;;;;5.57;2.22;;;;;;;16.11;89.93;100925.19;5012271;28;20416;-75
2022/07/16 07:43:19;;;;;;;3.55;2.17;;;;;;;16.26;89.28;100938.28;5029116;28;20057;-77
2022/07/16 07:45:46;;;;;;;8.57;2.25;;;;;;;16.22;87.50;100935.00;5022070;28;20133;-77
2022/07/16 07:48:13;;;;;;;5.30;2.10;;;;;;;16.25;88.03;100940.06;5030635;28;20050;-77
2022/07/16 07:50:41;;;;;;;3.90;1.90;;;;;;;16.29;86.88;100940.69;5029991;28;20053;-77
2022/07/16 07:53:08;;;;;;;3.72;1.77;;;;;;;16.39;85.70;100928.34;5028238;28;20076;-77
2022/07/16 07:55:35;;;;;;;4.43;2.10;;;;;;;16.32;85.25;100932.47;5032410;28;20467;-77
2022/07/16 07:58:03;;;;;;;8.07;2.00;;;;;;;16.40;85.79;100935.38;5013812;28;20057;-76
2022/07/16 08:00:30;;;;;;;5.07;1.90;;;;;;;16.45;84.00;100939.38;5030142;28;20056;-77
2022/07/16 08:02:58;;;;;;;2.88;1.73;;;;;;;16.35;84.26;100946.38;5016048;28;20068;-74
2022/07/16 08:05:25;;;;;;;4.07;1.80;;;;;;;16.29;85.43;100946.00;5029967;28;20037;-74
2022/07/16 08:07:52;;;;;;;1.77;1.40;;;;;;;16.32;84.78;100957.22;5031836;28;20046;-73
2022/07/16 08:10:20;;;;;;;5.82;2.10;;;;;;;16.60;83.23;100963.03;5030286;28;20053;-74
2022/07/16 08:12:47;;;;;;;4.30;1.98;;;;;;;16.86;83.07;100958.34;5032613;28;20065;-74
2022/07/16 08:15:15;;;;;;;5.22;1.70;;;;;;;17.33;81.09;100946.50;5028576;28;20403;-74
2022/07/16 08:17:42;;;;;;;5.03;1.85;;;;;;;17.58;78.73;100944.50;5033960;28;20071;-75
2022/07/16 08:20:10;;;;;;;3.95;1.92;;;;;;;17.81;76.19;100945.25;5029838;28;20064;-73
2022/07/16 08:22:37;;;;;;;7.25;1.77;;;;;;;17.55;73.34;100934.94;5001235;28;20041;-74
2022/07/16 08:27:51;;;;;;;2.45;1.33;;;;;;;17.42;74.56;100944.91;5033532;28;20407;-74
2022/07/16 08:30:19;;;;;;;2.25;1.27;;;;;;;17.55;75.00;100945.56;5012864;28;20361;-74
2022/07/16 08:32:46;;;;;;;4.05;1.73;;;;;;;17.28;75.82;100955.84;5013305;28;20057;-74
2022/07/16 08:35:14;;;;;;;4.85;1.50;;;;;;;17.48;73.61;100955.06;5016980;28;20072;-75
2022/07/16 08:37:44;;;;;;;3.80;1.77;;;;;;;17.59;72.28;100959.47;5018257;28;20103;-75
2022/07/16 08:40:20;;;;;;;3.80;1.33;;;;;;;17.83;70.65;100952.16;5029586;28;20499;-74
2022/07/16 08:42:48;;;;;;;;;;;;;;;17.99;68.98;100964.16;5034062;28;20388;-77
2022/07/16 08:45:16;;;;;;;4.47;1.10;;;;;;;18.13;66.08;100959.34;5005044;28;19925;-76
2022/07/16 08:47:43;;;;;;;2.10;1.00;;;;;;;18.29;64.71;100972.22;5028161;28;20064;-76
2022/07/16 08:50:13;;;;;;;3.53;1.17;;;;;;;18.36;64.29;100964.53;5014494;28;20048;-76
2022/07/16 08:52:42;;;;;;;3.15;1.27;;;;;;;18.46;64.54;100968.06;5030345;28;20057;-76
2022/07/16 08:55:10;;;;;;;1.77;0.93;;;;;;;18.57;64.71;100972.50;5035125;28;20391;-77
2022/07/16 08:57:39;;;;;;;2.33;1.02;;;;;;;18.24;63.97;100982.44;5027830;28;20538;-77
2022/07/16 09:00:12;;;;;;;1.30;0.90;;;;;;;18.36;62.99;100975.19;5035234;28;20064;-76
2022/07/16 09:02:40;;;;;;;1.63;0.90;;;;;;;18.32;61.12;100987.09;5032153;28;20053;-75
2022/07/16 09:05:08;;;;;;;2.75;1.08;;;;;;;18.66;59.83;100990.34;5003899;28;20486;-76
2022/07/16 09:07:35;;;;;;;7.78;1.23;;;;;;;18.99;58.65;100975.91;5017182;28;20056;-77
2022/07/16 09:10:06;;;;;;;3.15;0.90;;;;;;;18.82;59.21;100980.06;5016558;28;20085;-77
2022/07/16 09:12:35;;;;;;;2.40;0.82;;;;;;;18.64;58.49;101005.63;5031013;28;20511;-77
2022/07/16 09:15:30;;;;;;;3.25;1.40;;;;;;;18.67;58.17;100992.88;5029601;28;20075;-77
2022/07/16 09:18:09;;;;;;;3.75;1.00;;;;;;;18.99;57.94;100991.91;5030418;28;20045;-77
2022/07/16 09:20:38;;;;;;;3.22;1.00;;;;;;;18.70;57.59;100998.00;5026737;28;20050;-77
2022/07/16 09:23:24;;;;;;;4.70;0.90;;;;;;;18.92;56.57;101004.13;5034175;28;20053;-77
2022/07/16 09:25:58;;;;;;;1.92;1.02;;;;;;;19.17;55.94;100997.44;5025879;28;20045;-77
2022/07/16 09:28:36;;;;;;;4.05;1.75;;;;;;;19.50;55.58;101001.59;5041143;28;20132;-77
2022/07/16 09:31:04;;;;;;;2.20;0.85;;;;;;;19.47;54.45;100996.50;5015863;28;20049;-77
2022/07/16 09:33:32;;;;;;;3.58;1.00;;;;;;;19.72;53.34;101001.34;5041586;28;20537;-75
2022/07/16 09:36:10;;;;;;;3.47;0.82;;;;;;;19.51;52.11;101002.44;5033809;28;20049;-77
2022/07/16 09:38:52;;;;;;;3.20;1.17;;;;;;;19.32;52.05;101003.22;5032348;28;20407;-77
2022/07/16 09:41:20;;;;;;;1.90;0.73;;;;;;;19.20;53.04;101011.34;5030541;28;20041;-76
2022/07/16 09:43:49;;;;;;;3.60;0.98;;;;;;;19.08;53.63;101017.78;5036290;28;20480;-76
2022/07/16 09:46:21;;;;;;;2.90;0.98;;;;;;;19.33;52.88;101019.13;5018095;28;20067;-77
2022/07/16 09:48:50;;;;;;;1.88;0.80;;;;;;;19.41;51.01;101003.25;5020454;28;20136;-77
2022/07/16 09:51:22;;;;;;;1.73;0.60;;;;;;;19.48;48.41;101001.69;5030853;28;20530;-76
2022/07/16 09:53:51;;;;;;;1.85;0.88;;;;;;;19.60;47.93;101021.16;5030843;28;20049;-75
2022/07/16 09:56:21;;;;;;;2.30;0.80;;;;;;;19.60;47.96;101014.94;5035935;28;20055;-76
2022/07/16 09:58:57;;;;;;;2.10;0.63;;;;;;;19.72;47.21;101014.72;5000204;28;20178;-75
2022/07/16 10:01:31;;;;;;;2.50;0.90;;;;;;;19.75;46.98;101013.56;5032817;28;20065;-77
2022/07/16 10:03:59;;;;;;;3.03;0.90;;;;;;;20.25;46.24;101021.41;5041190;28;20113;-77
2022/07/16 10:06:26;;;;;;;2.75;0.85;;;;;;;20.21;46.33;101028.84;5020984;28;20460;-76
2022/07/16 10:08:54;;;;;;;1.52;0.68;;;;;;;20.24;45.29;101041.09;5024888;28;20038;-76
2022/07/16 10:11:21;;;;;;;5.38;0.80;;;;;;;20.08;45.13;101032.81;5021909;28;20056;-77
2022/07/16 10:13:50;;;;;;;4.88;0.73;;;;;;;20.26;44.73;101030.25;5017453;28;20041;-77
2022/07/16 10:16:36;;;;;;;2.10;0.60;;;;;;;20.29;44.94;101049.53;5012851;28;20596;-77
2022/07/16 10:19:04;;;;;;;1.38;0.68;;;;;;;20.34;45.01;101047.28;5018220;28;20082;-77
2022/07/16 10:21:31;;;;;;;4.40;0.80;;;;;;;20.22;44.42;101038.59;5031899;28;20328;-77
2022/07/16 10:24:05;;;;;;;2.55;0.80;;;;;;;19.96;45.85;101043.66;5042219;28;20051;-76
2022/07/16 10:26:33;;;;;;;1.38;0.73;;;;;;;20.23;44.66;101048.28;5032501;28;20050;-77
2022/07/16 10:29:01;;;;;;;2.78;0.88;;;;;;;20.33;45.18;101050.09;5006252;28;20053;-77
2022/07/16 10:31:36;;;;;;;2.60;0.90;;;;;;;20.41;45.34;101055.59;5018734;28;20153;-77
2022/07/16 10:34:12;;;;;;;2.25;0.80;;;;;;;20.08;45.27;101049.69;5036220;28;20068;-77
2022/07/16 10:36:48;;;;;;;2.78;0.80;;;;;;;20.39;45.27;101047.69;5034409;28;20215;-76
2022/07/16 10:39:16;;;;;;;4.57;0.95;;;;;;;20.70;44.30;101067.06;5038733;28;20065;-76
2022/07/16 10:41:54;;;;;;;3.40;0.93;;;;;;;20.74;43.50;101067.63;5025907;28;20060;-77
2022/07/16 10:44:48;;;;;;;5.53;1.20;;;;;;;20.98;43.23;101083.19;5025347;28;20485;-76
2022/07/16 10:47:16;;;;;;;3.55;0.70;;;;;;;20.90;41.07;101075.91;5014735;28;20067;-77
2022/07/16 10:49:44;;;;;;;5.18;1.10;;;;;;;20.41;42.01;101085.00;5030059;28;20221;-77
2022/07/16 10:52:15;;;;;;;4.35;0.90;;;;;;;20.05;43.38;101075.88;4999100;28;20056;-76
2022/07/16 10:54:50;;;;;;;4.55;0.90;;;;;;;19.85;43.02;101067.84;5036730;28;20144;-75
2022/07/16 10:57:18;;;;;;;2.33;0.80;;;;;;;19.87;43.57;101068.56;5033827;28;20404;-74
2022/07/16 10:59:46;;;;;;;5.00;1.17;;;;;;;20.25;43.50;101061.50;5014833;28;20040;-76
2022/07/16 11:02:16;;;;;;;1.58;0.70;;;;;;;20.77;42.65;101083.41;5038175;28;20041;-76
2022/07/16 11:04:47;;;;;;;5.07;1.10;;;;;;;20.98;41.87;101080.50;5030099;28;20415;-76
2022/07/16 11:07:19;;;;;;;4.57;0.85;;;;;;;20.88;41.69;101072.50;5021721;28;20053;-75
2022/07/16 11:09:52;;;;;;;6.75;1.05;;;;;;;21.10;41.94;101097.22;5012373;28;20060;-78
2022/07/16 11:12:26;;;;;;;4.95;1.00;;;;;;;20.89;41.29;101097.44;5024846;28;20064;-77
2022/07/16 11:14:55;;;;;;;4.18;0.90;;;;;;;20.75;41.02;101096.06;4997166;28;20225;-75
2022/07/16 11:17:26;;;;;;;1.83;0.77;;;;;;;21.01;40.98;101106.97;5030197;28;20045;-75
2022/07/16 11:19:59;;;;;;;6.82;1.33;;;;;;;20.67;40.97;101096.81;4997453;28;20045;-75
2022/07/16 11:22:28;;;;;;;3.80;0.82;;;;;;;20.74;40.89;101105.09;5016853;28;20100;-76
2022/07/16 11:25:05;;;;;;;3.33;0.90;;;;;;;20.90;40.06;101093.78;5030819;28;20053;-75
2022/07/16 11:27:33;;;;;;;5.88;1.20;;;;;;;20.86;39.59;101093.25;5033847;28;20044;-76
2022/07/16 11:30:28;;;;;;;2.90;0.70;;;;;;;20.63;40.15;101090.06;5035576;28;20037;-77
2022/07/16 11:32:55;;;;;;;4.15;1.05;;;;;;;21.10;40.18;101092.72;5023863;28;20071;-75
2022/07/16 11:35:22;;;;;;;2.95;0.90;;;;;;;21.16;39.62;101102.84;5031599;28;20057;-75